createdAt,value
2019-03-15T10:03:39.940Z,964.00
2019-03-15T10:04:39.788Z,1052.00
2019-03-15T10:05:39.774Z,1036.00
2019-03-15T11:38:45.737Z,1228.00
2019-03-15T11:39:45.745Z,1652.00
2019-03-15T11:40:45.730Z,1828.00
2019-03-15T11:49:21.230Z,2384.00
2019-03-15T11:50:21.228Z,4592.00
2019-03-15T11:51:21.223Z,4588.00
2019-03-15T11:52:21.218Z,9348.00
2019-03-15T11:53:21.213Z,6668.00
2019-03-15T11:54:21.212Z,7200.00
2019-03-15T11:55:21.208Z,5908.00
2019-03-15T11:56:26.894Z,6612.00
2019-03-15T11:57:21.197Z,7548.00
2019-03-15T11:59:53.815Z,5456.00
2019-03-15T12:02:38.667Z,4248.00
2019-03-15T12:03:52.092Z,4452.00
2019-03-15T12:04:38.659Z,4424.00
2019-03-15T12:24:21.287Z,1532.00
2019-03-15T13:32:07.160Z,2156.00
2019-03-15T13:33:19.509Z,2588.00
2019-03-15T13:34:07.150Z,2876.00
2019-03-15T13:35:07.145Z,2664.00
2019-03-15T13:36:07.138Z,3244.00
2019-03-15T13:37:07.385Z,3328.00
2019-03-15T13:38:07.128Z,2920.00
2019-03-15T13:39:07.126Z,2964.00
2019-03-15T13:40:07.119Z,2272.00
2019-03-15T13:41:07.116Z,2356.00
2019-03-15T13:42:07.110Z,1920.00
2019-03-15T13:43:07.108Z,1660.00
2019-03-15T13:44:07.102Z,1580.00
2019-03-15T13:45:07.104Z,2348.00
2019-03-15T13:46:07.093Z,2836.00
2019-03-15T13:49:52.816Z,1480.00
2019-03-15T13:50:52.811Z,972.00
2019-03-15T13:51:52.808Z,740.00
2019-03-15T13:52:52.805Z,872.00
2019-03-15T13:53:52.799Z,1028.00
2019-03-15T13:54:52.797Z,1284.00
2019-03-15T13:55:52.796Z,1112.00
2019-03-15T14:12:01.486Z,1808.00
2019-03-15T14:14:08.940Z,1420.00
2019-03-15T14:15:08.938Z,1484.00
2019-03-15T14:16:08.945Z,1748.00
2019-03-15T14:17:08.930Z,1652.00
2019-03-15T14:18:08.923Z,1440.00
2019-03-15T14:19:08.922Z,1416.00
2019-03-15T14:20:08.935Z,1316.00
2019-03-15T14:21:08.919Z,1164.00
2019-03-15T14:22:08.909Z,1020.00
2019-03-15T14:23:08.907Z,1136.00
2019-03-15T14:24:08.899Z,1052.00
2019-03-15T14:25:08.901Z,860.00
2019-03-15T14:26:08.895Z,644.00
2019-03-15T14:27:08.892Z,520.00
2019-03-15T14:28:08.888Z,456.00
2019-03-15T14:29:08.883Z,436.00
2019-03-15T14:30:08.877Z,340.00
2019-03-15T14:31:08.875Z,332.00
2019-03-15T14:32:08.869Z,400.00
2019-03-15T14:33:08.867Z,256.00
2019-03-15T14:34:08.862Z,272.00
2019-03-15T14:35:08.864Z,240.00
2019-03-15T14:36:08.853Z,240.00
2019-03-15T14:37:10.308Z,228.00
2019-03-15T14:38:08.874Z,240.00
2019-03-15T14:39:08.953Z,268.00
2019-03-15T14:40:08.982Z,300.00
2019-03-15T14:41:08.888Z,256.00
2019-03-15T14:42:08.830Z,240.00
2019-03-15T14:43:08.827Z,232.00
2019-03-15T14:44:08.978Z,240.00
2019-03-15T14:45:08.841Z,256.00
2019-03-15T14:46:12.045Z,252.00
2019-03-15T14:47:08.808Z,272.00
2019-03-15T14:48:08.801Z,248.00
2019-03-15T14:49:08.798Z,268.00
2019-03-15T14:50:08.793Z,316.00
2019-03-15T14:51:08.789Z,332.00
2019-03-15T14:52:08.782Z,360.00
2019-03-15T14:53:08.778Z,372.00
2019-03-15T14:54:08.771Z,332.00
2019-03-15T14:55:08.768Z,248.00
2019-03-15T14:56:08.760Z,264.00
2019-03-15T14:57:08.762Z,332.00
2019-03-15T14:58:08.749Z,368.00
2019-03-15T14:59:08.747Z,412.00
2019-03-15T15:00:11.067Z,416.00
2019-03-15T15:01:08.735Z,556.00
2019-03-15T15:02:08.727Z,524.00
2019-03-15T15:03:08.723Z,560.00
2019-03-15T15:04:08.717Z,584.00
2019-03-15T15:05:08.713Z,940.00
2019-03-15T15:06:08.704Z,1020.00
2019-03-15T15:07:08.701Z,928.00
2019-03-15T15:08:08.692Z,788.00
2019-03-15T15:09:08.688Z,760.00
2019-03-15T15:10:08.681Z,996.00
2019-03-15T15:11:08.678Z,972.00
2019-03-15T15:12:08.668Z,1196.00
2019-03-15T15:13:08.668Z,1084.00
2019-03-15T15:14:08.661Z,736.00
2019-03-15T15:15:08.654Z,648.00
2019-03-15T15:16:08.646Z,628.00
2019-03-15T15:17:08.745Z,692.00
2019-03-15T15:18:08.633Z,636.00
2019-03-15T15:19:08.631Z,548.00
2019-03-15T15:20:08.620Z,476.00
2019-03-15T15:21:08.617Z,388.00
2019-03-15T15:22:08.617Z,428.00
2019-03-15T15:23:08.605Z,420.00
2019-03-15T15:24:08.595Z,548.00
2019-03-15T15:25:08.592Z,824.00
2019-03-15T15:26:08.583Z,920.00
2019-03-15T15:27:08.580Z,988.00
2019-03-15T15:28:08.571Z,1028.00
2019-03-15T15:29:08.567Z,944.00
2019-03-15T15:30:08.559Z,820.00
2019-03-15T15:31:08.556Z,548.00
2019-03-15T15:32:08.546Z,424.00
2019-03-15T15:33:08.543Z,340.00
2019-03-15T15:34:08.536Z,320.00
2019-03-15T15:35:08.531Z,312.00
2019-03-15T15:36:08.523Z,280.00
2019-03-15T15:37:08.538Z,252.00
2019-03-15T15:38:08.511Z,244.00
2019-03-15T15:39:08.507Z,260.00
2019-03-15T15:40:08.804Z,280.00
2019-03-15T15:41:08.495Z,336.00
2019-03-15T15:42:08.486Z,408.00
2019-03-15T15:43:08.483Z,452.00
2019-03-15T15:44:08.473Z,584.00
2019-03-15T15:45:08.470Z,604.00
2019-03-15T15:46:08.462Z,480.00
2019-03-15T15:47:08.711Z,432.00
2019-03-15T15:48:08.449Z,380.00
2019-03-15T15:49:08.445Z,364.00
2019-03-15T15:50:08.438Z,368.00
2019-03-15T15:51:08.434Z,376.00
2019-03-15T15:54:54.144Z,444.00
2019-03-15T15:55:54.138Z,484.00
2019-03-15T15:56:54.131Z,476.00
2019-03-15T15:57:54.131Z,436.00
2019-03-15T15:58:54.118Z,400.00
2019-03-15T15:59:54.115Z,428.00
2019-03-15T16:00:54.109Z,456.00
2019-03-15T16:01:54.103Z,424.00
2019-03-15T16:02:54.096Z,440.00
2019-03-15T16:03:54.090Z,448.00
2019-03-15T16:04:54.082Z,444.00
2019-03-15T16:05:54.078Z,428.00
2019-03-15T16:06:54.070Z,440.00
2019-03-15T16:07:56.504Z,436.00
2019-03-15T16:08:54.063Z,436.00
2019-03-15T16:09:54.055Z,452.00
2019-03-15T16:10:54.046Z,476.00
2019-03-15T16:11:54.042Z,508.00
2019-03-15T16:12:54.036Z,556.00
2019-03-15T16:13:54.031Z,612.00
2019-03-15T16:14:54.026Z,680.00
2019-03-15T16:15:54.018Z,680.00
2019-03-15T16:16:54.088Z,708.00
2019-03-15T16:17:54.008Z,672.00
2019-03-15T16:18:54.041Z,640.00
2019-03-15T16:19:53.995Z,612.00
2019-03-15T16:20:53.987Z,588.00
2019-03-15T16:21:53.984Z,600.00
2019-03-15T16:22:53.974Z,572.00
2019-03-15T16:23:53.971Z,544.00
2019-03-15T16:24:53.964Z,520.00
2019-03-15T16:25:53.960Z,488.00
2019-03-15T16:26:53.950Z,464.00
2019-03-15T16:27:53.948Z,444.00
2019-03-15T16:28:53.941Z,432.00
2019-03-15T16:29:53.936Z,416.00
2019-03-15T16:30:53.928Z,400.00
2019-03-15T16:31:54.003Z,388.00
2019-03-15T16:32:53.917Z,380.00
2019-03-15T16:33:53.913Z,360.00
2019-03-15T16:34:53.905Z,328.00
2019-03-15T16:35:53.903Z,320.00
2019-03-15T16:36:53.893Z,316.00
2019-03-15T16:37:53.891Z,324.00
2019-03-15T16:38:53.882Z,320.00
2019-03-15T16:39:56.269Z,308.00
2019-03-15T16:40:53.871Z,304.00
2019-03-15T16:46:37.885Z,184.00
2019-03-15T16:47:37.881Z,200.00
2019-03-15T16:48:37.873Z,228.00
2019-03-15T16:55:30.094Z,232.00
2019-03-15T16:56:30.091Z,220.00
2019-03-15T16:57:30.084Z,200.00
2019-03-15T16:58:30.079Z,188.00
2019-03-15T16:59:30.071Z,188.00
2019-03-15T17:00:30.068Z,192.00
2019-03-15T17:01:30.060Z,188.00
2019-03-15T17:02:30.057Z,196.00
2019-03-15T17:03:30.049Z,188.00
2019-03-15T17:04:30.049Z,184.00
2019-03-15T17:05:30.037Z,180.00
2019-03-15T17:06:30.050Z,160.00
2019-03-15T17:07:30.030Z,140.00
2019-03-15T17:08:30.026Z,124.00
2019-03-15T17:09:30.015Z,120.00
2019-03-15T17:10:30.013Z,112.00
2019-03-15T17:11:30.004Z,124.00
2019-03-15T17:12:30.003Z,124.00
2019-03-15T17:18:20.717Z,96.00
2019-03-15T17:22:06.627Z,68.00
2019-03-15T17:23:06.421Z,68.00
2019-03-15T17:24:06.523Z,68.00
2019-03-15T17:25:06.411Z,60.00
2019-03-15T17:26:06.404Z,60.00
2019-03-15T17:27:06.401Z,56.00
2019-03-15T17:28:06.395Z,52.00
2019-03-15T17:29:06.389Z,40.00
2019-03-15T17:30:06.380Z,36.00
2019-03-15T17:31:10.159Z,36.00
2019-03-15T17:32:06.369Z,32.00
2019-03-15T17:33:06.454Z,32.00
2019-03-15T17:34:06.360Z,28.00
2019-03-15T17:35:06.426Z,28.00
2019-03-15T17:36:06.367Z,24.00
2019-03-15T17:37:07.085Z,24.00
2019-03-15T17:38:06.335Z,20.00
2019-03-15T17:39:06.331Z,20.00
2019-03-15T17:40:06.325Z,20.00
2019-03-15T17:42:06.316Z,16.00
2019-03-15T17:43:06.307Z,16.00
2019-03-15T17:44:06.303Z,12.00
2019-03-15T17:45:06.301Z,8.00
2019-03-15T17:46:06.306Z,8.00
2019-03-15T17:47:06.283Z,4.00
2019-03-15T17:48:06.280Z,4.00
2019-03-15T17:49:06.272Z,8.00
2019-03-15T17:50:06.268Z,4.00
2019-03-15T17:51:06.259Z,4.00
2019-03-15T17:52:06.345Z,4.00
2019-03-15T17:53:58.677Z,4.00
2019-03-15T17:54:58.673Z,0.00
2019-03-15T17:55:58.669Z,0.00
2019-03-15T17:56:58.660Z,0.00
2019-03-15T17:57:58.653Z,0.00
2019-03-15T17:59:11.541Z,0.00
2019-03-15T17:59:58.641Z,0.00
2019-03-15T18:00:58.637Z,0.00
2019-03-15T18:01:58.630Z,0.00
2019-03-15T18:03:58.806Z,0.00
